createdAt,value
2018-09-04T00:00:30.174Z,20.60
2018-09-04T00:02:58.212Z,20.60
2018-09-04T00:05:26.292Z,20.57
2018-09-04T00:07:54.340Z,20.54
2018-09-04T00:10:22.400Z,20.53
2018-09-04T00:12:50.597Z,20.50
2018-09-04T00:15:18.619Z,20.49
2018-09-04T00:17:46.664Z,20.46
2018-09-04T00:20:14.709Z,20.44
2018-09-04T00:22:42.736Z,20.44
2018-09-04T00:25:10.769Z,20.44
2018-09-04T00:27:38.814Z,20.44
2018-09-04T00:30:08.840Z,20.43
2018-09-04T00:32:36.882Z,20.44
2018-09-04T00:35:04.978Z,20.44
2018-09-04T00:37:33.013Z,20.40
2018-09-04T00:40:01.073Z,20.38
2018-09-04T00:42:29.101Z,20.41
2018-09-04T00:44:57.133Z,20.41
2018-09-04T00:47:25.179Z,20.37
2018-09-04T00:49:53.214Z,20.33
2018-09-04T00:52:21.292Z,20.32
2018-09-04T00:54:49.316Z,20.26
2018-09-04T00:57:17.364Z,20.22
2018-09-04T00:59:45.399Z,20.17
2018-09-04T01:02:13.441Z,20.18
2018-09-04T01:04:41.555Z,20.17
2018-09-04T01:07:09.592Z,20.17
2018-09-04T01:09:37.620Z,20.16
2018-09-04T01:12:05.783Z,20.17
2018-09-04T01:14:33.964Z,20.16
2018-09-04T01:17:02.004Z,20.14
2018-09-04T01:19:36.705Z,20.11
2018-09-04T01:22:05.221Z,20.07
2018-09-04T01:24:33.255Z,20.02
2018-09-04T01:27:01.300Z,20.04
2018-09-04T01:29:29.359Z,20.07
2018-09-04T01:31:57.387Z,20.08
2018-09-04T01:34:25.435Z,20.06
2018-09-04T01:36:53.507Z,20.07
2018-09-04T01:39:21.532Z,20.07
2018-09-04T01:41:49.573Z,20.08
2018-09-04T01:44:17.613Z,20.10
2018-09-04T01:46:45.666Z,20.15
2018-09-04T01:49:13.705Z,20.18
2018-09-04T01:51:41.751Z,20.18
2018-09-04T01:54:09.789Z,20.16
2018-09-04T01:56:37.948Z,20.14
2018-09-04T01:59:06.167Z,20.13
2018-09-04T02:01:34.712Z,20.16
2018-09-04T02:04:02.763Z,20.21
2018-09-04T02:06:30.788Z,20.22
2018-09-04T02:08:59.314Z,20.24
2018-09-04T02:11:27.416Z,20.24
2018-09-04T02:13:55.489Z,20.20
2018-09-04T02:16:23.541Z,20.18
2018-09-04T02:18:51.587Z,20.16
2018-09-04T02:21:19.625Z,20.15
2018-09-04T02:23:47.702Z,20.19
2018-09-04T02:26:15.745Z,20.20
2018-09-04T02:28:43.784Z,20.17
2018-09-04T02:31:11.825Z,20.15
2018-09-04T02:33:39.904Z,20.11
2018-09-04T02:36:07.951Z,20.10
2018-09-04T02:38:36.038Z,20.12
2018-09-04T02:41:11.544Z,20.13
2018-09-04T02:43:39.597Z,20.13
2018-09-04T02:46:07.653Z,20.13
2018-09-04T02:48:35.716Z,20.15
2018-09-04T02:51:03.776Z,20.16
2018-09-04T02:53:31.848Z,20.17
2018-09-04T02:55:59.885Z,20.18
2018-09-04T02:58:27.944Z,20.18
2018-09-04T03:00:55.980Z,20.18
2018-09-04T03:03:24.141Z,20.20
2018-09-04T03:05:52.198Z,20.20
2018-09-04T03:08:20.259Z,20.19
2018-09-04T03:10:48.300Z,20.17
2018-09-04T03:13:16.381Z,20.16
2018-09-04T03:15:44.422Z,20.16
2018-09-04T03:18:12.492Z,20.11
2018-09-04T03:20:40.558Z,20.08
2018-09-04T03:23:08.764Z,20.09
2018-09-04T03:25:36.777Z,20.10
2018-09-04T03:28:04.840Z,20.10
2018-09-04T03:30:32.905Z,20.05
2018-09-04T03:33:00.975Z,20.02
2018-09-04T03:35:29.058Z,19.96
2018-09-04T03:37:57.088Z,19.95
2018-09-04T03:40:25.179Z,19.97
2018-09-04T03:42:53.248Z,19.98
2018-09-04T03:45:21.302Z,19.89
2018-09-04T03:47:49.370Z,19.79
2018-09-04T03:50:17.437Z,19.80
2018-09-04T03:52:45.497Z,19.83
2018-09-04T03:55:13.604Z,19.78
2018-09-04T03:57:41.700Z,19.84
2018-09-04T04:00:09.783Z,19.86
2018-09-04T04:02:37.858Z,19.85
2018-09-04T04:05:06.012Z,19.88
2018-09-04T04:07:34.082Z,19.92
2018-09-04T04:10:02.150Z,19.95
2018-09-04T04:12:30.178Z,19.96
2018-09-04T04:14:58.233Z,19.95
2018-09-04T04:17:26.276Z,19.96
2018-09-04T04:19:54.325Z,19.96
2018-09-04T04:22:22.404Z,19.96
2018-09-04T04:24:50.451Z,19.94
2018-09-04T04:27:18.489Z,19.94
2018-09-04T04:29:46.541Z,19.93
2018-09-04T04:32:14.945Z,19.91
2018-09-04T04:34:42.981Z,19.86
2018-09-04T04:37:11.044Z,19.87
2018-09-04T04:39:39.064Z,19.86
2018-09-04T04:42:07.104Z,19.87
2018-09-04T04:44:35.148Z,19.84
2018-09-04T04:47:03.338Z,19.82
2018-09-04T04:49:31.368Z,19.79
2018-09-04T04:51:59.396Z,19.78
2018-09-04T04:54:27.440Z,19.76
2018-09-04T04:56:55.473Z,19.75
2018-09-04T04:59:23.513Z,19.73
2018-09-04T05:01:51.549Z,19.74
2018-09-04T05:04:19.584Z,19.72
2018-09-04T05:06:47.612Z,19.68
2018-09-04T05:09:15.653Z,19.65
2018-09-04T05:11:43.697Z,19.63
2018-09-04T05:14:11.760Z,19.60
2018-09-04T05:16:39.798Z,19.58
2018-09-04T05:19:07.853Z,19.58
2018-09-04T05:21:35.893Z,19.57
2018-09-04T05:24:04.912Z,19.55
2018-09-04T05:26:32.932Z,19.55
2018-09-04T05:29:00.972Z,19.55
2018-09-04T05:31:32.329Z,19.54
2018-09-04T05:34:00.378Z,19.52
2018-09-04T05:36:28.584Z,19.50
2018-09-04T05:38:56.605Z,19.47
2018-09-04T05:41:24.640Z,19.42
2018-09-04T05:43:55.399Z,19.38
2018-09-04T05:46:30.637Z,19.39
2018-09-04T05:48:59.020Z,19.43
2018-09-04T05:51:27.052Z,19.43
2018-09-04T05:53:55.205Z,19.41
2018-09-04T05:56:23.252Z,19.41
2018-09-04T05:58:51.280Z,19.43
2018-09-04T06:01:19.309Z,19.44
2018-09-04T06:03:47.450Z,19.44
2018-09-04T06:06:15.487Z,19.47
2018-09-04T06:08:43.504Z,19.52
2018-09-04T06:11:11.679Z,19.53
2018-09-04T06:13:39.756Z,19.56
2018-09-04T06:16:07.744Z,19.58
2018-09-04T06:18:35.788Z,19.60
2018-09-04T06:21:04.851Z,19.66
2018-09-04T06:23:32.889Z,19.69
2018-09-04T06:26:00.927Z,19.71
2018-09-04T06:28:29.001Z,19.70
2018-09-04T06:33:31.333Z,19.78
2018-09-04T06:35:59.317Z,19.85
2018-09-04T06:38:27.351Z,19.91
2018-09-04T06:40:55.388Z,19.96
2018-09-04T06:43:23.444Z,20.00
2018-09-04T06:45:51.498Z,20.07
2018-09-04T06:48:19.534Z,20.12
2018-09-04T06:50:47.793Z,20.19
2018-09-04T06:53:15.832Z,20.25
2018-09-04T06:55:43.866Z,20.29
2018-09-04T06:58:11.912Z,20.32
2018-09-04T07:00:40.020Z,20.33
2018-09-04T07:03:08.072Z,20.34
2018-09-04T07:05:42.236Z,20.40
2018-09-04T07:08:10.301Z,20.44
2018-09-04T07:10:38.341Z,20.49
2018-09-04T07:13:06.389Z,20.52
2018-09-04T07:15:34.470Z,20.62
2018-09-04T07:18:02.532Z,20.67
2018-09-04T07:20:30.852Z,20.72
2018-09-04T07:22:58.962Z,20.82
2018-09-04T07:25:27.012Z,20.91
2018-09-04T07:27:55.060Z,21.00
2018-09-04T07:30:23.169Z,21.09
2018-09-04T07:32:51.205Z,21.20
2018-09-04T07:35:19.242Z,21.25
2018-09-04T07:37:47.312Z,21.31
2018-09-04T07:40:15.405Z,21.37
2018-09-04T07:42:43.447Z,21.44
2018-09-04T07:45:11.500Z,21.49
2018-09-04T07:47:39.573Z,21.55
2018-09-04T07:50:08.198Z,21.64
2018-09-04T07:52:48.566Z,21.74
2018-09-04T07:55:16.601Z,21.87
2018-09-04T07:57:44.650Z,21.94
2018-09-04T08:00:12.676Z,22.05
2018-09-04T08:02:40.880Z,22.17
2018-09-04T08:05:08.918Z,22.19
2018-09-04T08:07:36.948Z,22.29
2018-09-04T08:10:05.190Z,22.44
2018-09-04T08:12:33.184Z,22.60
2018-09-04T08:15:01.224Z,22.73
2018-09-04T08:17:29.280Z,22.84
2018-09-04T08:19:57.341Z,23.05
2018-09-04T08:24:52.469Z,23.46
2018-09-04T08:27:20.663Z,23.62
2018-09-04T08:29:48.698Z,23.77
2018-09-04T08:32:16.740Z,23.87
2018-09-04T08:34:44.825Z,23.99
2018-09-04T08:37:12.873Z,24.17
2018-09-04T08:39:40.981Z,24.38
2018-09-04T08:42:09.045Z,24.47
2018-09-04T08:44:37.092Z,24.55
2018-09-04T08:47:05.271Z,24.68
2018-09-04T08:49:33.289Z,24.81
2018-09-04T08:52:01.335Z,24.89
2018-09-04T08:54:29.405Z,24.98
2018-09-04T08:56:58.369Z,25.14
2018-09-04T08:59:26.402Z,25.29
2018-09-04T09:01:54.425Z,25.50
2018-09-04T09:04:22.541Z,25.64
2018-09-04T09:06:50.598Z,25.87
2018-09-04T09:09:18.625Z,26.08
2018-09-04T09:11:46.663Z,26.31
2018-09-04T09:14:14.700Z,26.46
2018-09-04T09:16:42.774Z,26.60
2018-09-04T09:19:10.789Z,26.66
2018-09-04T09:21:38.831Z,26.78
2018-09-04T09:24:07.060Z,26.74
2018-09-04T09:26:35.096Z,26.78
2018-09-04T09:29:03.173Z,26.76
2018-09-04T09:31:31.213Z,26.76
2018-09-04T09:33:59.249Z,26.91
2018-09-04T09:36:27.361Z,27.07
2018-09-04T09:38:55.343Z,27.11
2018-09-04T09:41:23.410Z,27.22
2018-09-04T09:43:51.454Z,27.32
2018-09-04T09:46:19.530Z,27.50
2018-09-04T09:48:47.508Z,27.72
2018-09-04T09:51:15.560Z,27.91
2018-09-04T09:53:43.642Z,28.08
2018-09-04T09:56:12.064Z,28.12
2018-09-04T09:58:40.719Z,28.20
2018-09-04T10:01:14.117Z,28.25
2018-09-04T10:03:47.470Z,28.05
2018-09-04T10:06:15.503Z,28.17
2018-09-04T10:08:43.536Z,28.29
2018-09-04T10:11:11.645Z,28.21
2018-09-04T10:13:39.701Z,28.22
2018-09-04T10:16:07.712Z,28.13
2018-09-04T10:18:35.768Z,28.12
2018-09-04T10:21:03.804Z,28.29
2018-09-04T10:23:32.118Z,28.56
2018-09-04T10:26:00.163Z,28.61
2018-09-04T10:28:28.192Z,28.67
2018-09-04T10:30:56.234Z,28.71
2018-09-04T10:33:24.289Z,28.71
2018-09-04T10:35:52.308Z,28.71
2018-09-04T10:38:24.198Z,28.75
2018-09-04T10:40:53.680Z,28.72
2018-09-04T10:43:21.764Z,28.84
2018-09-04T10:45:55.224Z,28.95
2018-09-04T10:48:24.217Z,29.04
2018-09-04T10:50:52.366Z,29.10
2018-09-04T10:53:20.616Z,29.16
2018-09-04T10:55:48.875Z,29.35
2018-09-04T10:58:16.813Z,29.50
2018-09-04T11:00:45.009Z,29.55
2018-09-04T11:03:13.049Z,29.37
2018-09-04T11:05:41.252Z,29.44
2018-09-04T11:08:09.316Z,29.44
2018-09-04T11:10:37.353Z,29.63
2018-09-04T11:13:05.747Z,29.79
2018-09-04T11:15:33.831Z,29.82
2018-09-04T11:18:01.830Z,29.84
2018-09-04T11:20:29.900Z,29.88
2018-09-04T11:22:57.935Z,30.03
2018-09-04T11:25:25.976Z,30.05
2018-09-04T11:27:54.036Z,30.24
2018-09-04T11:30:22.116Z,30.19
2018-09-04T11:32:50.162Z,30.10
2018-09-04T11:35:18.223Z,30.02
2018-09-04T11:37:46.278Z,30.09
2018-09-04T11:40:14.344Z,30.16
2018-09-04T11:42:42.400Z,30.21
2018-09-04T11:45:10.732Z,30.34
2018-09-04T11:47:40.485Z,30.29
2018-09-04T11:50:08.572Z,30.29
2018-09-04T11:52:36.753Z,30.19
2018-09-04T11:55:05.080Z,30.22
2018-09-04T11:57:33.335Z,30.23
2018-09-04T12:00:01.361Z,30.18
2018-09-04T12:02:33.908Z,30.32
2018-09-04T12:05:01.978Z,30.31
2018-09-04T12:07:30.040Z,30.28
2018-09-04T12:09:58.094Z,30.37
2018-09-04T12:12:30.628Z,30.48
2018-09-04T12:14:59.317Z,30.52
2018-09-04T12:17:27.409Z,30.58
2018-09-04T12:20:05.715Z,30.58
2018-09-04T12:22:33.761Z,30.30
2018-09-04T12:25:01.797Z,30.26
2018-09-04T12:27:29.869Z,30.19
2018-09-04T12:29:57.933Z,30.23
2018-09-04T12:32:25.960Z,30.28
2018-09-04T12:34:54.175Z,30.34
2018-09-04T12:37:22.212Z,30.43
2018-09-04T12:39:55.640Z,30.47
2018-09-04T12:42:23.718Z,30.54
2018-09-04T12:44:51.721Z,30.60
2018-09-04T12:47:19.751Z,30.55
2018-09-04T12:49:47.777Z,30.62
2018-09-04T12:52:15.857Z,30.76
2018-09-04T12:54:43.918Z,30.67
2018-09-04T12:57:11.926Z,30.71
2018-09-04T12:59:39.985Z,30.78
2018-09-04T13:02:07.985Z,31.00
2018-09-04T13:04:36.076Z,30.99
2018-09-04T13:07:04.855Z,31.01
2018-09-04T13:09:32.890Z,31.13
2018-09-04T13:12:00.932Z,31.22
2018-09-04T13:14:28.983Z,31.23
2018-09-04T13:17:00.982Z,31.31
2018-09-04T13:19:29.008Z,31.36
2018-09-04T13:21:57.063Z,31.25
2018-09-04T13:24:25.353Z,31.11
2018-09-04T13:26:53.377Z,30.83
2018-09-04T13:29:21.426Z,30.64
2018-09-04T13:31:49.570Z,30.31
2018-09-04T13:34:17.665Z,30.09
2018-09-04T13:36:45.664Z,30.06
2018-09-04T13:39:13.760Z,30.16
2018-09-04T13:41:41.956Z,30.16
2018-09-04T13:44:09.992Z,30.05
2018-09-04T13:46:38.016Z,29.97
2018-09-04T13:49:06.585Z,30.00
2018-09-04T13:51:34.724Z,29.98
2018-09-04T13:54:02.919Z,30.05
2018-09-04T13:56:30.933Z,30.11
2018-09-04T13:58:58.960Z,30.14
2018-09-04T14:01:26.988Z,30.09
2018-09-04T14:03:55.036Z,30.06
2018-09-04T14:06:23.157Z,30.05
2018-09-04T14:08:51.191Z,30.05
2018-09-04T14:11:19.250Z,30.04
2018-09-04T14:13:47.274Z,30.02
2018-09-04T14:16:17.110Z,30.09
2018-09-04T14:18:45.136Z,30.08
2018-09-04T14:21:13.192Z,30.02
2018-09-04T14:23:41.268Z,30.03
2018-09-04T14:26:09.332Z,29.96
2018-09-04T14:28:40.967Z,30.02
2018-09-04T14:31:05.619Z,30.01
2018-09-04T14:33:40.211Z,29.96
2018-09-04T14:36:08.273Z,30.08
2018-09-04T14:38:36.316Z,30.19
2018-09-04T14:41:05.441Z,30.24
2018-09-04T14:43:33.501Z,30.25
2018-09-04T14:46:01.620Z,30.33
2018-09-04T14:48:29.663Z,30.46
2018-09-04T14:50:57.710Z,30.52
2018-09-04T14:53:25.892Z,30.44
2018-09-04T14:55:53.928Z,30.27
2018-09-04T14:58:23.214Z,30.29
2018-09-04T15:00:51.255Z,30.23
2018-09-04T15:03:26.033Z,30.16
2018-09-04T15:05:54.092Z,30.22
2018-09-04T15:08:22.143Z,30.19
2018-09-04T15:10:50.186Z,30.11
2018-09-04T15:13:18.241Z,30.17
2018-09-04T15:15:46.288Z,30.00
2018-09-04T15:18:14.433Z,29.93
2018-09-04T15:20:42.505Z,29.77
2018-09-04T15:23:10.544Z,29.59
2018-09-04T15:25:38.588Z,29.51
2018-09-04T15:28:06.620Z,29.35
2018-09-04T15:30:34.652Z,29.36
2018-09-04T15:33:02.887Z,29.24
2018-09-04T15:35:30.932Z,29.04
2018-09-04T15:37:58.973Z,28.93
2018-09-04T15:40:27.005Z,28.84
2018-09-04T15:42:55.130Z,28.83
2018-09-04T15:45:23.181Z,28.81
2018-09-04T15:47:51.220Z,28.72
2018-09-04T15:50:19.249Z,28.63
2018-09-04T15:52:47.280Z,28.64
2018-09-04T15:55:15.320Z,28.59
2018-09-04T15:57:43.349Z,28.50
2018-09-04T16:00:11.411Z,28.49
2018-09-04T16:02:39.449Z,28.42
2018-09-04T16:05:07.484Z,28.37
2018-09-04T16:07:35.518Z,28.31
2018-09-04T16:10:03.825Z,28.23
2018-09-04T16:12:34.564Z,28.18
2018-09-04T16:17:36.895Z,28.09
2018-09-04T16:20:05.276Z,27.97
2018-09-04T16:22:33.308Z,27.83
2018-09-04T16:25:01.343Z,27.75
2018-09-04T16:27:29.388Z,27.71
2018-09-04T16:29:57.448Z,27.70
2018-09-04T16:32:25.494Z,27.63
2018-09-04T16:34:53.655Z,27.61
2018-09-04T16:37:21.596Z,27.61
2018-09-04T16:39:56.069Z,27.61
2018-09-04T16:42:24.111Z,27.58
2018-09-04T16:44:52.148Z,27.55
2018-09-04T16:47:20.191Z,27.48
2018-09-04T16:49:48.219Z,27.46
2018-09-04T16:52:16.272Z,27.47
2018-09-04T16:54:44.566Z,27.43
2018-09-04T16:57:12.588Z,27.42
2018-09-04T16:59:40.653Z,27.43
2018-09-04T17:02:08.681Z,27.40
2018-09-04T17:04:36.731Z,27.37
2018-09-04T17:07:04.903Z,27.32
2018-09-04T17:09:33.010Z,27.27
2018-09-04T17:12:01.048Z,27.23
2018-09-04T17:14:29.270Z,27.14
2018-09-04T17:16:57.321Z,27.09
2018-09-04T17:19:25.349Z,27.05
2018-09-04T17:21:53.568Z,26.99
2018-09-04T17:24:21.685Z,26.93
2018-09-04T17:26:49.717Z,26.89
2018-09-04T17:29:17.785Z,26.85
2018-09-04T17:31:45.820Z,26.74
2018-09-04T17:34:13.851Z,26.68
2018-09-04T17:36:41.960Z,26.65
2018-09-04T17:39:10.104Z,26.65
2018-09-04T17:41:38.180Z,26.63
2018-09-04T17:44:06.498Z,26.61
2018-09-04T17:46:34.548Z,26.61
2018-09-04T17:49:02.603Z,26.59
2018-09-04T17:51:30.660Z,26.56
2018-09-04T17:53:58.732Z,26.49
2018-09-04T17:56:26.812Z,26.45
2018-09-04T17:58:55.104Z,26.39
2018-09-04T18:01:23.229Z,26.31
2018-09-04T18:03:51.377Z,26.27
2018-09-04T18:06:19.424Z,26.20
2018-09-04T18:08:47.484Z,26.13
2018-09-04T18:11:15.567Z,26.08
2018-09-04T18:13:43.597Z,26.04
2018-09-04T18:16:11.636Z,26.01
2018-09-04T18:18:39.676Z,25.95
2018-09-04T18:21:07.740Z,25.88
2018-09-04T18:23:35.803Z,25.82
2018-09-04T18:26:04.869Z,25.72
2018-09-04T18:28:32.979Z,25.62
2018-09-04T18:31:01.075Z,25.52
2018-09-04T18:33:33.801Z,25.41
2018-09-04T18:36:01.923Z,25.27
2018-09-04T18:38:29.935Z,25.17
2018-09-04T18:40:57.989Z,25.06
2018-09-04T18:43:26.038Z,24.97
2018-09-04T18:45:55.362Z,24.85
2018-09-04T18:48:23.459Z,24.75
2018-09-04T18:50:51.539Z,24.66
2018-09-04T18:53:19.585Z,24.59
2018-09-04T18:55:47.671Z,24.54
2018-09-04T18:58:15.729Z,24.49
2018-09-04T19:00:44.138Z,24.44
2018-09-04T19:03:12.182Z,24.37
2018-09-04T19:05:40.249Z,24.33
2018-09-04T19:08:08.280Z,24.27
2018-09-04T19:10:36.337Z,24.21
2018-09-04T19:13:04.981Z,24.15
2018-09-04T19:15:33.004Z,24.09
2018-09-04T19:18:01.048Z,24.04
2018-09-04T19:20:29.085Z,23.98
2018-09-04T19:22:57.125Z,23.89
2018-09-04T19:25:25.169Z,23.84
2018-09-04T19:27:53.856Z,23.77
2018-09-04T19:30:21.911Z,23.72
2018-09-04T19:32:49.964Z,23.68
2018-09-04T19:35:18.025Z,23.61
2018-09-04T19:37:46.093Z,23.53
2018-09-04T19:40:20.808Z,23.46
2018-09-04T19:42:48.889Z,23.41
2018-09-04T19:45:16.946Z,23.36
2018-09-04T19:47:44.989Z,23.31
2018-09-04T19:50:13.204Z,23.29
2018-09-04T19:52:41.247Z,23.25
2018-09-04T19:55:10.424Z,23.21
2018-09-04T19:57:38.627Z,23.16
2018-09-04T20:00:07.552Z,23.08
2018-09-04T20:02:35.612Z,23.02
2018-09-04T20:05:03.755Z,22.99
2018-09-04T20:07:31.811Z,22.94
2018-09-04T20:09:59.829Z,22.91
2018-09-04T20:12:27.905Z,22.85
2018-09-04T20:14:55.952Z,22.81
2018-09-04T20:17:24.001Z,22.78
2018-09-04T20:19:52.079Z,22.75
2018-09-04T20:22:20.113Z,22.72
2018-09-04T20:24:48.186Z,22.68
2018-09-04T20:27:16.356Z,22.65
2018-09-04T20:29:44.404Z,22.60
2018-09-04T20:32:12.449Z,22.55
2018-09-04T20:34:40.556Z,22.52
2018-09-04T20:37:08.595Z,22.50
2018-09-04T20:39:36.667Z,22.46
2018-09-04T20:42:04.984Z,22.41
2018-09-04T20:44:33.013Z,22.36
2018-09-04T20:47:01.060Z,22.33
2018-09-04T20:49:29.118Z,22.31
2018-09-04T20:51:57.225Z,22.30
2018-09-04T20:54:25.298Z,22.25
2018-09-04T20:57:01.200Z,22.22
2018-09-04T20:59:40.577Z,22.21
2018-09-04T21:02:19.968Z,22.21
2018-09-04T21:04:59.364Z,22.18
2018-09-04T21:09:41.388Z,22.16
2018-09-04T21:12:09.804Z,22.09
2018-09-04T21:14:37.996Z,22.07
2018-09-04T21:17:06.144Z,22.06
2018-09-04T21:19:34.215Z,22.05
2018-09-04T21:22:02.301Z,22.00
2018-09-04T21:24:30.368Z,21.98
2018-09-04T21:26:58.435Z,21.94
2018-09-04T21:29:26.472Z,21.91
2018-09-04T21:31:54.521Z,21.89
2018-09-04T21:34:22.602Z,21.85
2018-09-04T21:36:50.648Z,21.82
2018-09-04T21:39:18.680Z,21.83
2018-09-04T21:41:46.731Z,21.81
2018-09-04T21:44:14.781Z,21.77
2018-09-04T21:46:42.985Z,21.73
2018-09-04T21:49:11.018Z,21.69
2018-09-04T21:51:39.044Z,21.65
2018-09-04T21:54:07.164Z,21.59
2018-09-04T21:56:35.190Z,21.57
2018-09-04T21:59:03.600Z,21.53
2018-09-04T22:01:31.652Z,21.51
2018-09-04T22:03:59.704Z,21.49
2018-09-04T22:06:27.745Z,21.46
2018-09-04T22:08:55.802Z,21.42
2018-09-04T22:11:23.853Z,21.39
2018-09-04T22:13:52.045Z,21.37
2018-09-04T22:16:20.079Z,21.34
2018-09-04T22:18:48.168Z,21.31
2018-09-04T22:21:16.199Z,21.28
2018-09-04T22:23:44.393Z,21.26
2018-09-04T22:26:12.423Z,21.22
2018-09-04T22:28:40.444Z,21.18
2018-09-04T22:31:08.643Z,21.13
2018-09-04T22:33:36.678Z,21.11
2018-09-04T22:36:06.069Z,21.08
2018-09-04T22:38:34.276Z,21.06
2018-09-04T22:41:02.321Z,21.02
2018-09-04T22:43:30.349Z,21.00
2018-09-04T22:45:58.407Z,20.98
2018-09-04T22:48:26.440Z,20.96
2018-09-04T22:50:59.905Z,20.94
2018-09-04T22:53:27.949Z,20.88
2018-09-04T22:55:55.968Z,20.89
2018-09-04T22:58:24.012Z,20.86
2018-09-04T23:00:52.067Z,20.84
2018-09-04T23:03:20.132Z,20.82
2018-09-04T23:05:48.179Z,20.79
2018-09-04T23:08:16.209Z,20.75
2018-09-04T23:10:44.276Z,20.72
2018-09-04T23:13:12.321Z,20.69
2018-09-04T23:15:43.637Z,20.66
2018-09-04T23:18:13.667Z,20.62
2018-09-04T23:20:41.830Z,20.54
2018-09-04T23:23:10.095Z,20.51
2018-09-04T23:25:38.166Z,20.51
2018-09-04T23:28:06.384Z,20.51
2018-09-04T23:30:34.455Z,20.49
2018-09-04T23:33:02.499Z,20.49
2018-09-04T23:35:30.540Z,20.48
2018-09-04T23:37:58.733Z,20.46
2018-09-04T23:40:26.767Z,20.44
2018-09-04T23:42:54.805Z,20.42
2018-09-04T23:45:22.847Z,20.41
2018-09-04T23:47:50.885Z,20.38
2018-09-04T23:50:18.926Z,20.35
2018-09-04T23:52:47.526Z,20.32
2018-09-04T23:55:15.520Z,20.31
2018-09-04T23:57:43.548Z,20.28
